KASH/ASH METAR and TAF weather

Enter ICAO airport designator
Station Type Date Time Source
KASH METAR 2022/12/04 10:56 UTC NOAA

KASH 041056Z AUTO 29006KT 10SM CLR 02/M07 A3009 RMK AO2 SLP195 T00221072


Station Type Date Time Source
KASH Decoded METAR 2022/12/04 10:56 UTC NOAA

Nashua, Boire Field Airport, NH, United States (KASH) 42-46-54N 071-30-53W
Dec 04, 2022 - 05:56 AM EST / 2022.12.04 1056 UTC
Wind: from the WNW (290 degrees) at 7 MPH (6 KT):0
Visibility: 10 mile(s):0
Sky conditions: clear
Temperature: 36.0 F (2.2 C)
Dew Point: 19.0 F (-7.2 C)
Relative Humidity: 49%
Pressure (altimeter): 30.09 in. Hg (1018 hPa)
ob: KASH 041056Z AUTO 29006KT 10SM CLR 02/M07 A3009 RMK AO2 SLP195 T00221072
cycle: 11

Station Type Date Time Source
KASH TAF UTC NOAA

Error!

Example: see airport list